Time;durP1;ratioP1;P1;durP2;ratioP2;P2;SDS_P1;SDS_P2;PMS_P1;PMS_P2;Temp;Humidity;BMP_temperature;BMP_pressure;BME280_temperature;BME280_humidity;BME280_pressure;Samples;Min_cycle;Max_cycle;Signal;HPM_P1;HPM_P2
2023/04/30 00:00:08;;;;;;;0.70;0.70;;;;;;;10.20;81.35;97831.66;5035003;28;20096;-69
2023/04/30 00:02:39;;;;;;;0.85;0.85;;;;;;;10.14;81.39;97835.88;5043574;28;20037;-69
2023/04/30 00:05:07;;;;;;;0.00;0.00;;;;;;;10.11;81.87;97843.41;5038345;28;20436;-69
2023/04/30 00:07:35;;;;;;;0.80;0.80;;;;;;;10.06;81.78;97840.50;5040750;28;20045;-69
2023/04/30 00:10:04;;;;;;;0.70;0.70;;;;;;;10.06;81.87;97843.16;5045220;28;20041;-69
2023/04/30 00:12:31;;;;;;;0.22;0.22;;;;;;;10.06;81.83;97840.50;5038062;28;20458;-70
2023/04/30 00:15:01;;;;;;;0.50;0.50;;;;;;;10.12;81.54;97843.22;5035686;28;20544;-69
2023/04/30 00:17:28;;;;;;;0.60;0.60;;;;;;;10.15;81.88;97844.72;5042523;28;20128;-69
2023/04/30 00:19:56;;;;;;;0.95;0.95;;;;;;;10.15;81.60;97844.72;5041318;28;20131;-69
2023/04/30 00:22:23;;;;;;;1.23;1.23;;;;;;;10.19;81.64;97844.16;5040389;28;20050;-69
2023/04/30 00:24:51;;;;;;;0.55;0.55;;;;;;;10.13;81.45;97846.72;5044071;28;20037;-69
2023/04/30 00:27:18;;;;;;;0.52;0.52;;;;;;;10.10;81.53;97839.91;5043152;28;20083;-69
2023/04/30 00:29:46;;;;;;;0.50;0.50;;;;;;;10.11;81.36;97843.41;5035138;28;20041;-69
2023/04/30 00:32:15;;;;;;;0.65;0.65;;;;;;;10.25;81.22;97845.28;5042682;28;20033;-69
2023/04/30 00:34:43;;;;;;;0.13;0.13;;;;;;;10.23;80.96;97850.78;5037997;28;20418;-69
2023/04/30 00:37:10;;;;;;;0.57;0.57;;;;;;;10.20;81.15;97850.31;5042549;28;20040;-70
2023/04/30 00:39:38;;;;;;;0.70;0.70;;;;;;;10.17;81.02;97851.53;5043974;28;20041;-69
2023/04/30 00:42:05;;;;;;;0.55;0.55;;;;;;;10.05;81.12;97852.16;5044124;28;20052;-69
2023/04/30 00:44:33;;;;;;;0.75;0.75;;;;;;;10.14;81.32;97851.06;5036466;28;20067;-69
2023/04/30 00:47:00;;;;;;;0.55;0.55;;;;;;;10.17;81.39;97856.03;5055536;28;20098;-70
2023/04/30 00:49:29;;;;;;;0.63;0.63;;;;;;;10.15;81.55;97858.03;5055516;28;20076;-70
2023/04/30 00:51:57;;;;;;;0.57;0.57;;;;;;;10.11;81.61;97857.56;5040021;28;20044;-69
2023/04/30 00:54:25;;;;;;;0.20;0.20;;;;;;;10.16;81.56;97857.03;5031425;28;20443;-69
2023/04/30 00:56:52;;;;;;;0.65;0.65;;;;;;;10.20;81.41;97867.16;5043588;28;20045;-69
2023/04/30 00:59:20;;;;;;;0.60;0.60;;;;;;;10.12;80.18;97863.75;5044287;28;20057;-69
2023/04/30 01:01:48;;;;;;;0.73;0.73;;;;;;;10.04;79.42;97869.19;5047734;28;20040;-69
2023/04/30 01:04:16;;;;;;;0.98;0.98;;;;;;;9.91;79.42;97875.16;5041155;28;20041;-68
2023/04/30 01:06:45;;;;;;;0.63;0.63;;;;;;;10.06;78.28;97875.97;5050690;28;20143;-69
2023/04/30 01:09:13;;;;;;;0.82;0.82;;;;;;;10.07;77.79;97874.94;5043534;28;20084;-68
2023/04/30 01:11:49;;;;;;;0.73;0.73;;;;;;;10.11;77.20;97876.25;5054807;28;20045;-69
2023/04/30 01:14:23;;;;;;;0.73;0.73;;;;;;;9.99;77.04;97884.88;5038649;28;20037;-68
2023/04/30 01:16:54;;;;;;;0.70;0.70;;;;;;;10.03;77.30;97886.19;5038997;28;20048;-68
2023/04/30 01:19:35;;;;;;;0.68;0.68;;;;;;;10.06;76.25;97883.16;5040075;28;20037;-69
2023/04/30 01:22:05;;;;;;;0.70;0.70;;;;;;;10.06;76.33;97893.81;5044627;28;20148;-69
2023/04/30 01:24:47;;;;;;;0.63;0.63;;;;;;;10.06;76.03;97904.50;5045231;28;20059;-69
2023/04/30 01:27:24;;;;;;;0.70;0.70;;;;;;;10.02;76.14;97905.84;5045806;28;20051;-69
2023/04/30 01:29:54;;;;;;;0.85;0.85;;;;;;;9.97;75.81;97916.25;5052307;28;20052;-69
2023/04/30 01:32:23;;;;;;;0.80;0.80;;;;;;;9.93;74.51;97908.63;5060964;28;20099;-68
2023/04/30 01:34:51;;;;;;;0.75;0.75;;;;;;;9.90;74.75;97919.63;5043919;28;20045;-68
2023/04/30 01:37:22;;;;;;;0.77;0.77;;;;;;;9.79;74.96;97924.59;5044256;28;20045;-69
2023/04/30 01:39:57;;;;;;;0.73;0.73;;;;;;;9.75;74.92;97921.47;5039633;28;20045;-69
2023/04/30 01:42:30;;;;;;;0.55;0.55;;;;;;;9.78;74.91;97920.25;5042520;28;20042;-69
2023/04/30 01:45:18;;;;;;;0.80;0.80;;;;;;;9.70;75.17;97923.00;5063548;28;20041;-69
2023/04/30 01:47:48;;;;;;;0.88;0.88;;;;;;;9.69;75.43;97921.34;5051334;28;20037;-69
2023/04/30 01:50:29;;;;;;;0.60;0.60;;;;;;;9.64;75.22;97924.56;5040301;28;20040;-70
2023/04/30 01:52:59;;;;;;;0.65;0.65;;;;;;;9.67;74.96;97928.69;5047582;28;20041;-70
2023/04/30 01:55:30;;;;;;;0.98;0.98;;;;;;;9.53;75.13;97933.00;5049732;28;20446;-69
2023/04/30 01:58:00;;;;;;;0.82;0.82;;;;;;;9.50;75.54;97931.50;5062095;28;20102;-70
2023/04/30 02:00:30;;;;;;;0.70;0.70;;;;;;;9.52;75.37;97936.66;5057059;28;20098;-70
2023/04/30 02:02:58;;;;;;;0.57;0.57;;;;;;;9.52;75.49;97939.34;5038436;28;20042;-70
2023/04/30 02:05:26;;;;;;;0.88;0.88;;;;;;;9.50;75.59;97946.66;5049094;28;20060;-69
2023/04/30 02:07:55;;;;;;;0.10;0.10;;;;;;;9.42;75.19;97946.75;5074999;22;20453;-73
2023/04/30 02:10:25;;;;;;;0.70;0.70;;;;;;;9.42;75.00;97947.56;5058369;28;20070;-75
2023/04/30 02:12:53;;;;;;;0.55;0.55;;;;;;;9.32;75.07;97951.47;5047792;28;20048;-76
2023/04/30 02:15:20;;;;;;;0.80;0.80;;;;;;;9.17;75.03;97951.41;5059199;28;20051;-74
2023/04/30 02:17:49;;;;;;;0.80;0.80;;;;;;;9.15;74.64;97961.41;5034875;28;20057;-75
2023/04/30 02:20:17;;;;;;;0.65;0.65;;;;;;;8.91;75.13;97967.72;5031644;28;20099;-75
2023/04/30 02:22:45;;;;;;;1.15;1.15;;;;;;;8.92;75.14;97963.22;5022501;28;20072;-75
2023/04/30 02:25:13;;;;;;;0.88;0.88;;;;;;;8.84;75.12;97961.41;5031894;28;20045;-75
2023/04/30 02:27:40;;;;;;;0.70;0.70;;;;;;;8.80;75.40;97968.94;5035276;28;20128;-73
2023/04/30 02:30:09;;;;;;;0.60;0.60;;;;;;;8.75;75.50;97965.13;5020985;28;20125;-75
2023/04/30 02:32:37;;;;;;;0.65;0.65;;;;;;;8.72;75.61;97970.81;5022778;28;20412;-75
2023/04/30 02:35:06;;;;;;;0.70;0.70;;;;;;;8.69;75.56;97977.31;5028815;28;20124;-75
2023/04/30 02:37:34;;;;;;;0.20;0.20;;;;;;;8.60;75.75;97986.31;5039440;28;20409;-75
2023/04/30 02:40:01;;;;;;;0.73;0.73;;;;;;;8.59;76.30;97979.34;5027869;28;20049;-75
2023/04/30 02:42:29;;;;;;;1.13;1.13;;;;;;;8.54;76.28;97979.03;5032062;28;20181;-76
2023/04/30 02:44:57;;;;;;;0.80;0.80;;;;;;;8.48;76.45;97989.53;5028312;28;20044;-75
2023/04/30 02:47:25;;;;;;;0.88;0.88;;;;;;;8.53;76.34;97987.16;5028809;28;20060;-75
2023/04/30 02:49:52;;;;;;;0.85;0.85;;;;;;;8.38;76.61;97985.25;5026351;28;20037;-73
2023/04/30 02:52:21;;;;;;;0.57;0.57;;;;;;;8.38;76.79;97984.41;5027937;28;20041;-73
2023/04/30 02:54:49;;;;;;;0.80;0.80;;;;;;;8.44;76.72;97991.69;5025862;28;20512;-73
2023/04/30 02:57:17;;;;;;;0.73;0.73;;;;;;;8.45;76.95;97999.50;5031389;28;20396;-73
2023/04/30 02:59:44;;;;;;;0.63;0.63;;;;;;;8.49;76.92;97996.50;5049967;28;20044;-73
2023/04/30 03:02:13;;;;;;;0.63;0.63;;;;;;;8.56;76.52;97995.66;5040303;28;20183;-73
2023/04/30 03:04:41;;;;;;;0.80;0.80;;;;;;;8.57;76.60;97999.97;5042979;28;20890;-73
2023/04/30 03:07:08;;;;;;;0.77;0.77;;;;;;;8.62;76.38;98000.25;5028911;28;20484;-73
2023/04/30 03:09:37;;;;;;;0.80;0.80;;;;;;;8.54;76.35;98004.78;5035785;28;20045;-75
2023/04/30 03:12:05;;;;;;;0.20;0.20;;;;;;;8.60;76.51;97998.81;5029173;28;20432;-73
2023/04/30 03:14:32;;;;;;;0.80;0.80;;;;;;;8.64;76.45;98006.25;5035291;28;20046;-73
2023/04/30 03:17:00;;;;;;;0.75;0.75;;;;;;;8.61;76.43;98008.44;5031574;28;20056;-72
2023/04/30 03:19:27;;;;;;;0.20;0.20;;;;;;;8.61;76.38;98011.94;5029919;28;20415;-73
2023/04/30 03:21:55;;;;;;;0.50;0.50;;;;;;;8.56;76.37;98008.13;5047400;28;20099;-73
2023/04/30 03:24:23;;;;;;;0.77;0.77;;;;;;;8.49;76.57;98009.81;5029897;28;20041;-72
2023/04/30 03:26:52;;;;;;;0.82;0.82;;;;;;;8.51;76.56;98016.63;5037086;28;20111;-75
2023/04/30 03:29:20;;;;;;;0.65;0.65;;;;;;;8.49;76.65;98010.63;5024033;28;20049;-73
2023/04/30 03:31:47;;;;;;;0.60;0.60;;;;;;;8.49;76.64;98017.78;5022968;28;20041;-73
2023/04/30 03:34:15;;;;;;;0.10;0.10;;;;;;;8.51;76.45;98007.81;5022248;28;20469;-74
2023/04/30 03:36:42;;;;;;;0.20;0.20;;;;;;;8.41;76.67;98007.97;5042201;28;20436;-73
2023/04/30 03:39:10;;;;;;;0.60;0.60;;;;;;;8.45;76.66;98015.47;5024228;28;20049;-73
2023/04/30 03:41:38;;;;;;;0.70;0.70;;;;;;;8.40;76.82;98017.81;5026451;28;20049;-73
2023/04/30 03:44:14;;;;;;;0.85;0.85;;;;;;;8.37;76.95;98012.00;5021714;28;20054;-73
2023/04/30 03:46:42;;;;;;;0.22;0.22;;;;;;;8.42;76.71;98017.63;5023800;28;20427;-74
2023/04/30 03:49:09;;;;;;;0.57;0.57;;;;;;;8.43;76.78;98028.09;5021501;28;20048;-74
2023/04/30 03:51:40;;;;;;;0.73;0.73;;;;;;;8.45;76.65;98033.25;5026921;28;20065;-73
2023/04/30 03:54:08;;;;;;;1.15;1.15;;;;;;;8.46;76.65;98037.56;5042303;28;20150;-73
2023/04/30 03:56:36;;;;;;;0.63;0.63;;;;;;;8.46;76.83;98033.09;5021311;28;20038;-73
2023/04/30 03:59:08;;;;;;;0.88;0.88;;;;;;;8.50;76.62;98030.94;5047366;28;20103;-73
2023/04/30 04:01:36;;;;;;;0.68;0.68;;;;;;;8.46;76.50;98043.72;5031864;28;20048;-73
2023/04/30 04:04:03;;;;;;;0.63;0.63;;;;;;;8.42;76.60;98033.59;5031362;28;20481;-73
2023/04/30 04:06:32;;;;;;;0.68;0.68;;;;;;;8.40;76.69;98043.59;5036854;28;20061;-73
2023/04/30 04:09:00;;;;;;;0.68;0.68;;;;;;;8.29;77.13;98043.91;5020735;28;20543;-73
2023/04/30 04:11:27;;;;;;;0.65;0.65;;;;;;;8.27;77.13;98046.72;5036994;28;20041;-73
2023/04/30 04:13:56;;;;;;;0.93;0.93;;;;;;;8.22;77.30;98042.91;5022745;28;20492;-73
2023/04/30 04:16:25;;;;;;;0.65;0.65;;;;;;;8.25;77.38;98043.41;5021333;28;20527;-73
2023/04/30 04:18:53;;;;;;;0.63;0.63;;;;;;;8.26;77.23;98049.56;5022632;28;20129;-73
2023/04/30 04:21:21;;;;;;;0.82;0.82;;;;;;;8.23;77.12;98041.91;5027793;28;20512;-73
2023/04/30 04:23:49;;;;;;;0.77;0.77;;;;;;;8.20;77.16;98052.91;5026048;28;20175;-73
2023/04/30 04:26:18;;;;;;;1.25;1.25;;;;;;;8.25;76.92;98050.53;5026343;28;20045;-75
2023/04/30 04:28:46;;;;;;;0.73;0.73;;;;;;;8.23;76.55;98066.66;5044873;28;20060;-75
2023/04/30 04:31:14;;;;;;;0.60;0.60;;;;;;;8.28;76.56;98059.03;5015727;28;20281;-74
2023/04/30 04:33:44;;;;;;;0.98;0.98;;;;;;;8.26;76.57;98068.16;5027178;28;20062;-74
2023/04/30 04:36:12;;;;;;;0.73;0.73;;;;;;;8.23;76.22;98063.19;5036753;28;20041;-75
2023/04/30 04:38:39;;;;;;;0.68;0.68;;;;;;;8.22;76.72;98064.16;5029437;28;20045;-74
2023/04/30 04:41:07;;;;;;;0.50;0.50;;;;;;;8.10;77.04;98063.69;5021981;28;20037;-74
2023/04/30 04:43:35;;;;;;;0.60;0.60;;;;;;;8.10;76.99;98061.84;5041377;28;20046;-74
2023/04/30 04:46:04;;;;;;;0.10;0.10;;;;;;;8.10;76.88;98074.31;5022831;28;20416;-73
2023/04/30 04:48:31;;;;;;;0.60;0.60;;;;;;;7.95;77.40;98083.97;5026236;28;20099;-74
2023/04/30 04:51:00;;;;;;;0.43;0.43;;;;;;;7.96;77.28;98080.31;5023091;28;20496;-74
2023/04/30 04:53:28;;;;;;;0.98;0.98;;;;;;;7.98;77.25;98083.66;5020735;28;20079;-75
2023/04/30 04:55:56;;;;;;;0.85;0.85;;;;;;;8.02;76.90;98080.47;5039315;28;20103;-74
2023/04/30 04:58:24;;;;;;;1.05;1.05;;;;;;;7.97;76.17;98088.13;5039167;28;20049;-74
2023/04/30 05:00:51;;;;;;;0.57;0.57;;;;;;;7.93;76.52;98080.63;5023667;28;20045;-74
2023/04/30 05:03:19;;;;;;;0.68;0.68;;;;;;;7.91;76.36;98085.28;5022917;28;20115;-73
2023/04/30 05:05:49;;;;;;;0.50;0.50;;;;;;;7.88;76.48;98090.94;5013546;28;20072;-74
2023/04/30 05:08:18;;;;;;;0.80;0.80;;;;;;;7.90;76.70;98095.09;5021321;28;20046;-75
2023/04/30 05:10:46;;;;;;;0.70;0.70;;;;;;;7.95;76.63;98094.59;5021405;28;20512;-75
2023/04/30 05:13:13;;;;;;;0.77;0.77;;;;;;;7.87;76.91;98089.28;5042291;28;20069;-74
2023/04/30 05:15:41;;;;;;;0.85;0.85;;;;;;;7.95;76.68;98094.59;5028777;28;20038;-75
2023/04/30 05:18:08;;;;;;;0.85;0.85;;;;;;;7.94;76.38;98099.09;5028299;28;20073;-74
2023/04/30 05:20:36;;;;;;;0.10;0.10;;;;;;;7.98;76.18;98096.94;5030182;28;20474;-72
2023/04/30 05:23:04;;;;;;;0.68;0.68;;;;;;;8.01;75.83;98088.59;5030696;28;20052;-75
2023/04/30 05:25:32;;;;;;;0.88;0.88;;;;;;;7.89;75.21;98093.41;5022891;28;20191;-73
2023/04/30 05:28:00;;;;;;;0.60;0.60;;;;;;;7.93;74.66;98091.28;5024362;28;20271;-74
2023/04/30 05:30:27;;;;;;;0.75;0.75;;;;;;;7.88;73.35;98097.09;5036871;28;20037;-73
2023/04/30 05:32:55;;;;;;;0.70;0.70;;;;;;;7.85;73.43;98092.09;5022580;28;20076;-75
2023/04/30 05:35:23;;;;;;;0.80;0.80;;;;;;;7.94;72.50;98103.56;5019543;28;20041;-74
2023/04/30 05:37:51;;;;;;;0.73;0.73;;;;;;;7.98;72.19;98097.78;5024506;28;20096;-75
2023/04/30 05:40:18;;;;;;;1.05;1.05;;;;;;;7.98;72.13;98103.09;5027783;28;20076;-74
2023/04/30 05:42:47;;;;;;;0.90;0.90;;;;;;;8.00;71.67;98098.41;5021292;28;20049;-73
2023/04/30 05:45:16;;;;;;;0.68;0.68;;;;;;;8.10;71.57;98098.25;5026041;28;20065;-74
2023/04/30 05:47:43;;;;;;;0.77;0.77;;;;;;;7.99;71.61;98106.56;5031163;28;20099;-73
2023/04/30 05:50:11;;;;;;;0.57;0.57;;;;;;;8.02;71.48;98098.25;5022409;28;20120;-73
2023/04/30 05:52:39;;;;;;;0.60;0.60;;;;;;;8.07;71.47;98111.88;5028130;28;20091;-73
2023/04/30 05:55:08;;;;;;;0.75;0.75;;;;;;;7.99;71.00;98098.59;5029720;28;20034;-74
2023/04/30 05:57:36;;;;;;;0.20;0.20;;;;;;;8.07;71.07;98106.56;5032252;28;20423;-74
2023/04/30 06:00:06;;;;;;;0.80;0.80;;;;;;;8.01;71.34;98100.06;5026891;28;20046;-73
2023/04/30 06:02:38;;;;;;;0.80;0.80;;;;;;;8.08;71.54;98101.09;5029022;28;20046;-74
2023/04/30 06:05:08;;;;;;;0.60;0.60;;;;;;;7.85;71.97;98097.41;5024565;28;20095;-74
2023/04/30 06:07:36;;;;;;;0.20;0.20;;;;;;;8.03;71.13;98099.91;5028630;28;20471;-74
2023/04/30 06:10:04;;;;;;;0.65;0.65;;;;;;;8.11;70.69;98091.94;5028709;28;20088;-74
2023/04/30 06:12:32;;;;;;;0.63;0.63;;;;;;;8.09;70.81;98099.25;5030535;28;20045;-74
2023/04/30 06:14:59;;;;;;;0.40;0.40;;;;;;;8.16;70.83;98094.94;5047942;28;20061;-74
2023/04/30 06:17:28;;;;;;;0.70;0.70;;;;;;;8.21;70.84;98094.41;5022825;28;20053;-74
2023/04/30 06:19:57;;;;;;;0.55;0.55;;;;;;;8.11;71.01;98103.41;5021037;28;20038;-74
2023/04/30 06:22:25;;;;;;;0.75;0.75;;;;;;;8.16;71.83;98099.41;5031995;28;20045;-73
2023/04/30 06:24:53;;;;;;;0.75;0.75;;;;;;;8.19;72.11;98094.59;5029851;28;20465;-74
2023/04/30 06:27:20;;;;;;;0.98;0.98;;;;;;;8.17;72.21;98096.59;5024663;28;20042;-74
2023/04/30 06:29:48;;;;;;;0.90;0.90;;;;;;;8.20;72.00;98096.25;5024919;28;20571;-73
2023/04/30 06:32:15;;;;;;;0.90;0.90;;;;;;;8.23;72.32;98098.56;5024827;28;20049;-75
2023/04/30 06:34:44;;;;;;;0.65;0.65;;;;;;;8.30;71.91;98096.94;5029377;28;20049;-73
2023/04/30 06:37:12;;;;;;;0.93;0.93;;;;;;;8.32;71.56;98096.75;5029446;28;20045;-73
2023/04/30 06:39:39;;;;;;;0.73;0.73;;;;;;;8.42;71.48;98092.09;5027561;28;20053;-74
2023/04/30 06:42:07;;;;;;;0.77;0.77;;;;;;;8.60;70.64;98102.56;5027797;28;20088;-74
2023/04/30 06:44:34;;;;;;;0.70;0.70;;;;;;;8.76;69.89;98095.34;5029540;28;20932;-74
2023/04/30 06:47:02;;;;;;;0.82;0.82;;;;;;;8.87;69.16;98093.34;5031688;28;20056;-74
2023/04/30 06:49:30;;;;;;;0.63;0.63;;;;;;;9.00;68.78;98097.13;5021638;28;20049;-74
2023/04/30 06:52:00;;;;;;;1.48;1.48;;;;;;;9.05;68.17;98093.91;5031449;28;20057;-74
2023/04/30 06:54:27;;;;;;;1.00;1.00;;;;;;;9.15;67.93;98100.69;5026502;28;20071;-73
2023/04/30 06:56:57;;;;;;;0.52;0.52;;;;;;;9.15;67.40;98094.53;5032498;28;20048;-74
2023/04/30 06:59:24;;;;;;;0.75;0.75;;;;;;;9.05;67.90;98089.44;5020835;28;20092;-74
2023/04/30 07:01:52;;;;;;;0.80;0.80;;;;;;;8.86;67.75;98092.50;5032049;28;20041;-73
2023/04/30 07:04:20;;;;;;;0.90;0.90;;;;;;;8.92;68.28;98086.50;5045195;28;20077;-74
2023/04/30 07:06:48;;;;;;;0.60;0.60;;;;;;;8.98;67.70;98092.97;5031755;28;20068;-75
2023/04/30 07:09:19;;;;;;;0.50;0.50;;;;;;;8.96;67.17;98102.94;5039132;28;20058;-75
2023/04/30 07:11:46;;;;;;;0.73;0.73;;;;;;;8.86;67.45;98108.47;5022310;28;20149;-74
2023/04/30 07:14:14;;;;;;;0.68;0.68;;;;;;;8.97;67.26;98102.78;5029450;28;20042;-74
2023/04/30 07:16:41;;;;;;;0.60;0.60;;;;;;;9.03;66.95;98098.63;5022619;28;20072;-74
2023/04/30 07:19:09;;;;;;;0.73;0.73;;;;;;;9.20;66.20;98103.69;5032280;28;20041;-74
2023/04/30 07:21:36;;;;;;;0.60;0.60;;;;;;;9.37;65.11;98091.09;5037566;28;20045;-74
2023/04/30 07:24:04;;;;;;;0.88;0.88;;;;;;;9.57;64.45;98089.66;5027255;28;20571;-74
2023/04/30 07:26:34;;;;;;;0.20;0.20;;;;;;;9.56;63.57;98081.84;5045109;28;20462;-75
2023/04/30 07:29:02;;;;;;;0.43;0.43;;;;;;;9.74;63.54;98090.41;5032412;28;20049;-75
2023/04/30 07:31:30;;;;;;;0.40;0.40;;;;;;;9.83;62.09;98085.84;5033392;28;20042;-74
2023/04/30 07:33:57;;;;;;;0.65;0.65;;;;;;;10.10;62.16;98087.13;5026030;28;20543;-74
2023/04/30 07:36:26;;;;;;;0.90;0.90;;;;;;;9.92;61.01;98088.25;5028189;28;20073;-74
2023/04/30 07:38:53;;;;;;;0.50;0.50;;;;;;;9.96;61.80;98083.41;5025285;28;20037;-74
2023/04/30 07:41:21;;;;;;;0.63;0.63;;;;;;;10.00;62.14;98086.53;5029659;28;20084;-74
2023/04/30 07:43:50;;;;;;;0.63;0.63;;;;;;;10.20;60.92;98082.41;5030951;28;20098;-74
2023/04/30 07:46:18;;;;;;;0.70;0.70;;;;;;;10.27;61.29;98078.84;5033876;28;20041;-74
2023/04/30 07:48:45;;;;;;;0.50;0.50;;;;;;;10.27;60.60;98081.53;5033031;28;20059;-74
2023/04/30 07:51:13;;;;;;;0.30;0.30;;;;;;;10.45;60.23;98081.19;5034745;28;20420;-75
2023/04/30 07:53:40;;;;;;;0.73;0.73;;;;;;;10.64;60.39;98075.31;5025158;28;20045;-74
2023/04/30 07:56:09;;;;;;;0.52;0.52;;;;;;;10.67;59.35;98082.13;5029278;28;20088;-74
2023/04/30 07:58:36;;;;;;;0.70;0.70;;;;;;;10.91;58.67;98083.69;5029359;28;20042;-74
2023/04/30 08:01:05;;;;;;;0.55;0.55;;;;;;;11.10;59.11;98087.66;5027621;28;20063;-75
2023/04/30 08:03:33;;;;;;;0.60;0.60;;;;;;;11.18;58.24;98087.53;5027498;28;20076;-74
2023/04/30 08:06:00;;;;;;;0.10;0.10;;;;;;;11.29;57.54;98082.56;5027629;28;20373;-74
2023/04/30 08:08:28;;;;;;;0.20;0.20;;;;;;;11.36;57.22;98083.44;5060958;22;20471;-68
2023/04/30 08:10:56;;;;;;;0.60;0.60;;;;;;;11.55;56.36;98091.88;5038738;28;20032;-69
2023/04/30 08:13:23;;;;;;;0.77;0.77;;;;;;;11.65;56.00;98090.56;5046838;28;20328;-69
2023/04/30 08:15:51;;;;;;;0.77;0.77;;;;;;;11.82;56.56;98101.91;5048407;28;20049;-69
2023/04/30 08:18:22;;;;;;;0.60;0.60;;;;;;;11.57;55.80;98103.22;5041057;28;20481;-71
2023/04/30 08:20:50;;;;;;;0.70;0.70;;;;;;;11.48;55.22;98102.50;5028789;28;20384;-69
2023/04/30 08:23:17;;;;;;;0.85;0.85;;;;;;;11.89;54.22;98101.97;5025641;28;20103;-69
2023/04/30 08:25:45;;;;;;;0.70;0.70;;;;;;;12.05;54.11;98101.69;5023277;28;20086;-69
2023/04/30 08:28:12;;;;;;;0.60;0.60;;;;;;;12.32;54.00;98108.13;5022987;28;20115;-69
2023/04/30 08:30:40;;;;;;;0.63;0.63;;;;;;;12.48;53.99;98103.31;5028201;28;20507;-69
2023/04/30 08:33:08;;;;;;;0.50;0.50;;;;;;;12.38;52.16;98100.16;5032589;28;20036;-69
2023/04/30 08:35:37;;;;;;;0.52;0.52;;;;;;;12.48;52.39;98099.81;5034967;28;20062;-69
2023/04/30 08:38:04;;;;;;;0.43;0.43;;;;;;;12.46;51.75;98096.50;5021867;28;20073;-70
2023/04/30 08:40:34;;;;;;;0.85;0.85;;;;;;;12.64;50.41;98099.53;5029549;28;20049;-70
2023/04/30 08:43:18;;;;;;;0.60;0.60;;;;;;;12.63;50.93;98097.88;5020600;28;20497;-69
2023/04/30 08:45:46;;;;;;;0.50;0.50;;;;;;;12.52;52.36;98095.75;5022840;28;20045;-69
2023/04/30 08:48:15;;;;;;;0.60;0.60;;;;;;;12.54;50.53;98084.84;5023916;28;20117;-69
2023/04/30 08:50:44;;;;;;;0.52;0.52;;;;;;;12.64;50.22;98088.81;5026049;28;20103;-70
2023/04/30 08:53:13;;;;;;;0.60;0.60;;;;;;;12.47;49.18;98095.47;5029830;28;20038;-69
2023/04/30 08:55:41;;;;;;;0.60;0.60;;;;;;;12.18;50.90;98093.78;5027706;28;20042;-69
2023/04/30 08:58:09;;;;;;;0.60;0.60;;;;;;;12.48;52.87;98097.97;5022765;28;20100;-69
2023/04/30 09:00:37;;;;;;;0.75;0.75;;;;;;;12.72;51.18;98101.22;5029138;28;20050;-69
2023/04/30 09:03:05;;;;;;;0.40;0.40;;;;;;;12.50;52.78;98095.09;5022398;28;20045;-69
2023/04/30 09:05:33;;;;;;;0.47;0.47;;;;;;;12.48;51.63;98102.50;5026593;28;20058;-69
2023/04/30 09:08:02;;;;;;;0.65;0.65;;;;;;;12.66;50.90;98104.69;5024956;28;20045;-69
2023/04/30 09:10:32;;;;;;;0.70;0.70;;;;;;;13.01;50.66;98101.00;5027926;28;20100;-69
2023/04/30 09:13:01;;;;;;;0.47;0.47;;;;;;;13.20;52.04;98100.31;5023911;28;20046;-69
2023/04/30 09:15:30;;;;;;;0.55;0.55;;;;;;;13.16;51.43;98098.25;5027020;28;20042;-69
2023/04/30 09:18:09;;;;;;;0.50;0.50;;;;;;;13.31;49.72;98106.13;5018776;28;20096;-69
2023/04/30 09:20:37;;;;;;;0.50;0.50;;;;;;;13.57;47.66;98095.53;5029402;28;20088;-69
2023/04/30 09:23:08;;;;;;;0.68;0.68;;;;;;;13.37;47.42;98091.94;5033687;28;20092;-69
2023/04/30 09:25:40;;;;;;;0.60;0.60;;;;;;;13.52;46.41;98088.06;5032664;28;20061;-69
2023/04/30 09:28:10;;;;;;;0.75;0.75;;;;;;;13.48;46.46;98094.88;5029449;28;20046;-69
2023/04/30 09:30:37;;;;;;;0.60;0.60;;;;;;;13.76;47.56;98088.56;5033369;28;20484;-69
2023/04/30 09:33:05;;;;;;;0.70;0.70;;;;;;;13.86;48.61;98089.00;5026036;28;20041;-69
2023/04/30 09:35:38;;;;;;;0.68;0.68;;;;;;;13.84;47.09;98088.38;5023185;28;20042;-69
2023/04/30 09:38:07;;;;;;;0.50;0.50;;;;;;;13.81;45.07;98094.97;5030511;28;20038;-69
2023/04/30 09:40:36;;;;;;;0.10;0.10;;;;;;;13.91;44.12;98090.03;5029168;28;20424;-70
2023/04/30 09:43:04;;;;;;;0.60;0.60;;;;;;;13.92;45.25;98098.91;5033985;28;20095;-70
2023/04/30 09:45:41;;;;;;;0.57;0.57;;;;;;;13.27;44.97;98089.63;5024803;28;20045;-69
2023/04/30 09:48:10;;;;;;;0.45;0.45;;;;;;;13.64;45.89;98093.69;5023581;28;20037;-70
2023/04/30 09:50:46;;;;;;;0.40;0.40;;;;;;;13.92;47.18;98098.91;5024377;28;20045;-69
2023/04/30 09:53:16;;;;;;;0.43;0.43;;;;;;;13.88;46.59;98097.69;5034043;28;20072;-70
2023/04/30 09:55:45;;;;;;;0.50;0.50;;;;;;;14.18;45.34;98092.78;5033715;28;20069;-69
2023/04/30 09:58:14;;;;;;;0.57;0.57;;;;;;;14.39;44.84;98086.38;5031460;28;20045;-69
2023/04/30 10:00:42;;;;;;;0.20;0.20;;;;;;;14.44;44.76;98086.59;5027527;28;20396;-70
2023/04/30 10:03:11;;;;;;;0.80;0.80;;;;;;;14.42;45.81;98084.16;5022340;28;20041;-70
2023/04/30 10:05:41;;;;;;;0.40;0.40;;;;;;;14.61;46.57;98087.84;5027156;28;20416;-70
2023/04/30 10:08:13;;;;;;;0.75;0.75;;;;;;;14.73;45.66;98086.19;5035246;28;20095;-70
2023/04/30 10:10:43;;;;;;;0.50;0.50;;;;;;;14.36;45.51;98084.94;5021527;28;20052;-70
2023/04/30 10:13:15;;;;;;;0.35;0.35;;;;;;;13.72;47.38;98082.75;5026517;28;20485;-70
2023/04/30 10:15:45;;;;;;;0.50;0.50;;;;;;;14.07;47.51;98082.63;5015802;28;20053;-70
2023/04/30 10:18:17;;;;;;;0.52;0.52;;;;;;;14.09;48.19;98083.25;5021602;28;20084;-70
2023/04/30 10:20:46;;;;;;;0.45;0.45;;;;;;;14.29;48.53;98081.41;5026329;28;20073;-70
2023/04/30 10:23:14;;;;;;;0.30;0.30;;;;;;;14.46;47.26;98068.41;5031393;28;20087;-70
2023/04/30 10:25:44;;;;;;;0.45;0.45;;;;;;;14.71;45.92;98076.69;5031933;28;20103;-70
2023/04/30 10:28:12;;;;;;;0.38;0.38;;;;;;;14.98;46.39;98062.97;5031833;28;20471;-70
2023/04/30 10:30:41;;;;;;;0.55;0.55;;;;;;;15.14;45.86;98077.00;5032165;28;20079;-70
2023/04/30 10:33:13;;;;;;;0.52;0.52;;;;;;;15.17;45.51;98077.38;5024273;28;20520;-70
2023/04/30 10:35:47;;;;;;;0.60;0.60;;;;;;;15.27;45.14;98072.38;5027322;28;20637;-70
2023/04/30 10:38:20;;;;;;;0.50;0.50;;;;;;;15.15;43.68;98068.72;5024329;28;20448;-70
2023/04/30 10:40:49;;;;;;;0.40;0.40;;;;;;;14.97;44.91;98064.00;5026756;28;20041;-70
2023/04/30 10:43:18;;;;;;;0.10;0.10;;;;;;;15.52;43.67;98064.44;5034089;28;20406;-70
2023/04/30 10:45:46;;;;;;;0.40;0.40;;;;;;;15.25;42.92;98054.84;5033020;28;20044;-70
2023/04/30 10:48:15;;;;;;;0.50;0.50;;;;;;;15.27;44.48;98056.25;5032447;28;20377;-70
2023/04/30 10:50:45;;;;;;;0.55;0.55;;;;;;;15.61;42.49;98057.78;5029767;28;20042;-70
2023/04/30 10:53:15;;;;;;;0.40;0.40;;;;;;;14.89;42.14;98042.72;5025501;28;20095;-70
2023/04/30 10:55:47;;;;;;;1.02;1.02;;;;;;;14.79;45.18;98042.34;5030560;28;20052;-70
2023/04/30 10:58:26;;;;;;;;;;;;;;;15.10;45.65;98048.88;5026989;28;20053;-70
2023/04/30 11:01:01;;;;;;;0.85;0.85;;;;;;;15.22;45.28;98044.50;5026981;28;19929;-70
2023/04/30 11:03:31;;;;;;;0.40;0.40;;;;;;;15.85;43.65;98042.75;5023281;28;20046;-70
2023/04/30 11:06:02;;;;;;;0.43;0.43;;;;;;;15.48;44.52;98041.66;5025329;28;20046;-70
2023/04/30 11:08:34;;;;;;;0.38;0.38;;;;;;;15.71;44.30;98038.47;5022062;28;20544;-70
2023/04/30 11:11:04;;;;;;;0.38;0.38;;;;;;;15.88;44.73;98041.50;5027396;28;20489;-70
2023/04/30 11:13:45;;;;;;;0.40;0.40;;;;;;;16.30;43.88;98038.03;5030585;28;20128;-70
2023/04/30 11:16:12;;;;;;;0.40;0.40;;;;;;;16.35;44.14;98032.84;5030732;28;20069;-70
2023/04/30 11:18:44;;;;;;;0.30;0.30;;;;;;;15.98;44.43;98034.59;5023901;28;20053;-70
2023/04/30 11:21:12;;;;;;;0.38;0.38;;;;;;;16.22;43.56;98027.53;5031191;28;20500;-70
2023/04/30 11:23:42;;;;;;;0.08;0.08;;;;;;;16.57;42.62;98022.47;5024462;28;20489;-70
2023/04/30 11:26:10;;;;;;;0.43;0.43;;;;;;;16.68;42.87;98019.09;5017141;28;20497;-70
2023/04/30 11:28:38;;;;;;;0.47;0.47;;;;;;;16.83;42.47;98016.84;5023285;28;20052;-70
2023/04/30 11:31:07;;;;;;;0.57;0.57;;;;;;;17.03;42.50;98018.47;5028583;28;20049;-70
2023/04/30 11:33:35;;;;;;;0.50;0.50;;;;;;;16.78;42.03;98015.88;5019490;28;20124;-70
2023/04/30 11:36:02;;;;;;;0.50;0.50;;;;;;;16.82;42.53;98014.34;5025456;28;20057;-70
2023/04/30 11:38:31;;;;;;;0.38;0.38;;;;;;;16.81;42.37;98015.44;5027492;28;20516;-70
2023/04/30 11:40:59;;;;;;;0.50;0.50;;;;;;;16.66;41.45;98020.34;5032233;28;20512;-70
2023/04/30 11:43:28;;;;;;;0.38;0.38;;;;;;;16.44;42.73;98012.63;5030628;28;20038;-70
2023/04/30 11:46:04;;;;;;;0.30;0.30;;;;;;;16.92;42.63;98021.97;5024291;28;20045;-70